aviador You're here:

YCAS Decoded Metar

in
Report Time2018-01-17 18:00:00
UTC Time2018-01-17 18:14:44
Flight Rules unknown UNKNOWN
Wind350° at 03 kt
W.Decomp.*RWY 28: 1.0 kt HW 2.8 kt RCW
W.Rank350° ranks 6
Current wind is below 350° avg. (7.2)
VisibilityN/A
Phenomena:N/A
Clouds:N/A
Expected CloudBase > 800 ft AGL from Temp-Dew spread
CeilingNone
Temp15°C
Dew Point13°C (88% RH)
AAT14.9°C
QNH1018 hPa
Raw Report
METAR YCAS 171800Z AUTO 35003KT //// // ////// 15/13 Q1018=

Extra information for YCAS:More info

Social comments